sensor_id;sensor_type;location;lat;lon;timestamp;P1;durP1;ratioP1;P2;durP2;ratioP2
30127;SDS011;16942;53.196;6.592;2023-07-30T00:01:43;19.07;;;6.23;;
30127;SDS011;16942;53.196;6.592;2023-07-30T00:04:09;19.63;;;5.40;;
30127;SDS011;16942;53.196;6.592;2023-07-30T00:06:35;23.37;;;5.93;;
30127;SDS011;16942;53.196;6.592;2023-07-30T00:09:01;16.33;;;5.53;;
30127;SDS011;16942;53.196;6.592;2023-07-30T00:11:28;24.47;;;6.47;;
30127;SDS011;16942;53.196;6.592;2023-07-30T00:13:55;19.77;;;7.37;;
30127;SDS011;16942;53.196;6.592;2023-07-30T00:16:21;17.60;;;5.80;;
30127;SDS011;16942;53.196;6.592;2023-07-30T00:18:47;17.47;;;5.63;;
30127;SDS011;16942;53.196;6.592;2023-07-30T00:21:13;22.53;;;5.97;;
30127;SDS011;16942;53.196;6.592;2023-07-30T00:23:39;16.57;;;6.00;;
30127;SDS011;16942;53.196;6.592;2023-07-30T00:26:05;24.93;;;5.77;;
30127;SDS011;16942;53.196;6.592;2023-07-30T00:28:31;18.97;;;5.83;;
30127;SDS011;16942;53.196;6.592;2023-07-30T00:30:57;20.23;;;5.93;;
30127;SDS011;16942;53.196;6.592;2023-07-30T00:33:22;20.73;;;6.37;;
30127;SDS011;16942;53.196;6.592;2023-07-30T00:35:50;20.20;;;6.47;;
30127;SDS011;16942;53.196;6.592;2023-07-30T00:38:17;13.73;;;5.10;;
30127;SDS011;16942;53.196;6.592;2023-07-30T00:40:43;22.60;;;6.33;;
30127;SDS011;16942;53.196;6.592;2023-07-30T00:43:10;22.20;;;5.60;;
30127;SDS011;16942;53.196;6.592;2023-07-30T00:45:36;24.57;;;7.07;;
30127;SDS011;16942;53.196;6.592;2023-07-30T00:48:02;21.90;;;5.97;;
30127;SDS011;16942;53.196;6.592;2023-07-30T00:50:28;20.37;;;6.37;;
30127;SDS011;16942;53.196;6.592;2023-07-30T00:52:54;24.03;;;6.53;;
30127;SDS011;16942;53.196;6.592;2023-07-30T00:55:20;25.23;;;5.67;;
30127;SDS011;16942;53.196;6.592;2023-07-30T00:57:46;16.70;;;5.40;;
30127;SDS011;16942;53.196;6.592;2023-07-30T01:00:13;18.67;;;5.53;;
30127;SDS011;16942;53.196;6.592;2023-07-30T01:02:39;19.43;;;6.17;;
30127;SDS011;16942;53.196;6.592;2023-07-30T01:05:05;17.67;;;5.97;;
30127;SDS011;16942;53.196;6.592;2023-07-30T01:07:32;12.07;;;5.13;;
30127;SDS011;16942;53.196;6.592;2023-07-30T01:09:58;12.00;;;4.70;;
30127;SDS011;16942;53.196;6.592;2023-07-30T01:12:25;22.83;;;5.73;;
30127;SDS011;16942;53.196;6.592;2023-07-30T01:14:51;22.93;;;5.27;;
30127;SDS011;16942;53.196;6.592;2023-07-30T01:17:18;20.07;;;5.70;;
30127;SDS011;16942;53.196;6.592;2023-07-30T01:19:44;14.00;;;5.13;;
30127;SDS011;16942;53.196;6.592;2023-07-30T01:22:10;20.53;;;8.07;;
30127;SDS011;16942;53.196;6.592;2023-07-30T01:24:36;13.80;;;5.07;;
30127;SDS011;16942;53.196;6.592;2023-07-30T01:27:03;15.13;;;5.67;;
30127;SDS011;16942;53.196;6.592;2023-07-30T01:29:42;16.93;;;5.20;;
30127;SDS011;16942;53.196;6.592;2023-07-30T01:32:11;17.73;;;4.90;;
30127;SDS011;16942;53.196;6.592;2023-07-30T01:34:37;19.50;;;6.13;;
30127;SDS011;16942;53.196;6.592;2023-07-30T01:37:05;18.10;;;5.00;;
30127;SDS011;16942;53.196;6.592;2023-07-30T01:39:34;18.70;;;5.27;;
30127;SDS011;16942;53.196;6.592;2023-07-30T01:42:01;13.87;;;4.80;;
30127;SDS011;16942;53.196;6.592;2023-07-30T01:44:28;14.27;;;5.37;;
30127;SDS011;16942;53.196;6.592;2023-07-30T01:46:54;22.33;;;5.33;;
30127;SDS011;16942;53.196;6.592;2023-07-30T01:49:20;20.17;;;5.33;;
30127;SDS011;16942;53.196;6.592;2023-07-30T01:51:46;20.80;;;5.43;;
30127;SDS011;16942;53.196;6.592;2023-07-30T01:54:12;20.50;;;6.10;;
30127;SDS011;16942;53.196;6.592;2023-07-30T01:56:38;17.87;;;6.07;;
30127;SDS011;16942;53.196;6.592;2023-07-30T01:59:04;16.77;;;4.77;;
30127;SDS011;16942;53.196;6.592;2023-07-30T02:01:30;14.70;;;4.90;;
30127;SDS011;16942;53.196;6.592;2023-07-30T02:03:59;22.63;;;5.97;;
30127;SDS011;16942;53.196;6.592;2023-07-30T02:06:25;21.73;;;5.03;;
30127;SDS011;16942;53.196;6.592;2023-07-30T02:08:51;13.10;;;4.57;;
30127;SDS011;16942;53.196;6.592;2023-07-30T02:11:17;15.73;;;5.20;;
30127;SDS011;16942;53.196;6.592;2023-07-30T02:13:43;19.90;;;4.47;;
30127;SDS011;16942;53.196;6.592;2023-07-30T02:16:09;21.57;;;5.50;;
30127;SDS011;16942;53.196;6.592;2023-07-30T02:18:35;11.43;;;4.53;;
30127;SDS011;16942;53.196;6.592;2023-07-30T02:21:01;22.17;;;5.17;;
30127;SDS011;16942;53.196;6.592;2023-07-30T02:23:27;23.60;;;7.53;;
30127;SDS011;16942;53.196;6.592;2023-07-30T02:25:53;21.47;;;5.80;;
30127;SDS011;16942;53.196;6.592;2023-07-30T02:28:19;28.17;;;5.70;;
30127;SDS011;16942;53.196;6.592;2023-07-30T02:30:45;20.13;;;5.03;;
30127;SDS011;16942;53.196;6.592;2023-07-30T02:33:11;22.07;;;5.00;;
30127;SDS011;16942;53.196;6.592;2023-07-30T02:35:37;24.57;;;5.43;;
30127;SDS011;16942;53.196;6.592;2023-07-30T02:38:03;18.47;;;4.53;;
30127;SDS011;16942;53.196;6.592;2023-07-30T02:40:29;20.57;;;4.67;;
30127;SDS011;16942;53.196;6.592;2023-07-30T02:42:55;24.57;;;5.67;;
30127;SDS011;16942;53.196;6.592;2023-07-30T02:45:21;20.03;;;4.63;;
30127;SDS011;16942;53.196;6.592;2023-07-30T02:47:47;24.17;;;5.63;;
30127;SDS011;16942;53.196;6.592;2023-07-30T02:50:13;19.77;;;5.37;;
30127;SDS011;16942;53.196;6.592;2023-07-30T02:52:40;22.77;;;5.70;;
30127;SDS011;16942;53.196;6.592;2023-07-30T02:55:06;19.67;;;5.57;;
30127;SDS011;16942;53.196;6.592;2023-07-30T02:57:32;26.00;;;5.67;;
30127;SDS011;16942;53.196;6.592;2023-07-30T02:59:58;17.57;;;5.50;;
30127;SDS011;16942;53.196;6.592;2023-07-30T03:02:24;17.10;;;5.40;;
30127;SDS011;16942;53.196;6.592;2023-07-30T03:04:50;29.13;;;6.57;;
30127;SDS011;16942;53.196;6.592;2023-07-30T03:07:16;20.50;;;4.40;;
30127;SDS011;16942;53.196;6.592;2023-07-30T03:09:43;22.23;;;5.20;;
30127;SDS011;16942;53.196;6.592;2023-07-30T03:12:09;19.47;;;5.30;;
30127;SDS011;16942;53.196;6.592;2023-07-30T03:14:35;19.87;;;5.17;;
30127;SDS011;16942;53.196;6.592;2023-07-30T03:17:01;21.43;;;5.03;;
30127;SDS011;16942;53.196;6.592;2023-07-30T03:19:27;16.03;;;4.63;;
30127;SDS011;16942;53.196;6.592;2023-07-30T03:21:53;22.37;;;4.60;;
30127;SDS011;16942;53.196;6.592;2023-07-30T03:24:19;19.67;;;5.30;;
30127;SDS011;16942;53.196;6.592;2023-07-30T03:26:45;15.60;;;5.07;;
30127;SDS011;16942;53.196;6.592;2023-07-30T03:29:11;21.20;;;5.73;;
30127;SDS011;16942;53.196;6.592;2023-07-30T03:31:37;22.77;;;5.27;;
30127;SDS011;16942;53.196;6.592;2023-07-30T03:34:03;22.57;;;4.73;;
30127;SDS011;16942;53.196;6.592;2023-07-30T03:36:29;16.10;;;4.63;;
30127;SDS011;16942;53.196;6.592;2023-07-30T03:38:55;16.70;;;4.90;;
30127;SDS011;16942;53.196;6.592;2023-07-30T03:41:21;19.67;;;4.30;;
30127;SDS011;16942;53.196;6.592;2023-07-30T03:43:48;18.33;;;5.10;;
30127;SDS011;16942;53.196;6.592;2023-07-30T03:46:14;19.63;;;5.20;;
30127;SDS011;16942;53.196;6.592;2023-07-30T03:48:40;13.93;;;4.70;;
30127;SDS011;16942;53.196;6.592;2023-07-30T03:51:06;32.37;;;6.87;;
30127;SDS011;16942;53.196;6.592;2023-07-30T03:53:32;20.33;;;5.17;;
30127;SDS011;16942;53.196;6.592;2023-07-30T03:55:59;15.07;;;4.40;;
30127;SDS011;16942;53.196;6.592;2023-07-30T03:58:25;23.47;;;4.93;;
30127;SDS011;16942;53.196;6.592;2023-07-30T04:00:51;22.77;;;4.60;;
30127;SDS011;16942;53.196;6.592;2023-07-30T04:03:17;23.07;;;4.70;;
30127;SDS011;16942;53.196;6.592;2023-07-30T04:05:43;22.83;;;5.17;;
30127;SDS011;16942;53.196;6.592;2023-07-30T04:08:09;14.73;;;5.00;;
30127;SDS011;16942;53.196;6.592;2023-07-30T04:10:35;16.10;;;4.33;;
30127;SDS011;16942;53.196;6.592;2023-07-30T04:13:01;14.80;;;5.10;;
30127;SDS011;16942;53.196;6.592;2023-07-30T04:15:27;17.43;;;4.90;;
30127;SDS011;16942;53.196;6.592;2023-07-30T04:17:53;19.63;;;4.83;;
30127;SDS011;16942;53.196;6.592;2023-07-30T04:20:19;21.50;;;7.17;;
30127;SDS011;16942;53.196;6.592;2023-07-30T04:22:45;19.23;;;5.10;;
30127;SDS011;16942;53.196;6.592;2023-07-30T04:25:11;17.87;;;4.83;;
30127;SDS011;16942;53.196;6.592;2023-07-30T04:27:37;16.30;;;5.07;;
30127;SDS011;16942;53.196;6.592;2023-07-30T04:30:04;18.43;;;5.03;;
30127;SDS011;16942;53.196;6.592;2023-07-30T04:32:30;15.73;;;4.70;;
30127;SDS011;16942;53.196;6.592;2023-07-30T04:34:57;19.93;;;4.20;;
30127;SDS011;16942;53.196;6.592;2023-07-30T04:37:23;21.00;;;5.03;;
30127;SDS011;16942;53.196;6.592;2023-07-30T04:39:49;17.77;;;4.57;;
30127;SDS011;16942;53.196;6.592;2023-07-30T04:42:15;24.17;;;5.30;;
30127;SDS011;16942;53.196;6.592;2023-07-30T04:44:41;20.87;;;5.00;;
30127;SDS011;16942;53.196;6.592;2023-07-30T04:47:07;14.70;;;4.13;;
30127;SDS011;16942;53.196;6.592;2023-07-30T04:49:33;24.10;;;4.43;;
30127;SDS011;16942;53.196;6.592;2023-07-30T04:51:59;15.87;;;5.27;;
30127;SDS011;16942;53.196;6.592;2023-07-30T04:54:25;15.37;;;4.33;;
30127;SDS011;16942;53.196;6.592;2023-07-30T04:56:51;17.37;;;4.63;;
30127;SDS011;16942;53.196;6.592;2023-07-30T04:59:17;17.93;;;4.27;;
30127;SDS011;16942;53.196;6.592;2023-07-30T05:01:43;22.87;;;5.10;;
30127;SDS011;16942;53.196;6.592;2023-07-30T05:04:09;13.63;;;3.70;;
30127;SDS011;16942;53.196;6.592;2023-07-30T05:06:35;16.47;;;4.60;;
30127;SDS011;16942;53.196;6.592;2023-07-30T05:09:01;22.93;;;5.27;;
30127;SDS011;16942;53.196;6.592;2023-07-30T05:11:27;19.17;;;5.00;;
30127;SDS011;16942;53.196;6.592;2023-07-30T05:13:53;21.03;;;5.10;;
30127;SDS011;16942;53.196;6.592;2023-07-30T05:16:19;32.43;;;7.17;;
30127;SDS011;16942;53.196;6.592;2023-07-30T05:18:45;25.13;;;4.00;;
30127;SDS011;16942;53.196;6.592;2023-07-30T05:21:11;15.93;;;4.20;;
30127;SDS011;16942;53.196;6.592;2023-07-30T05:23:37;20.83;;;4.80;;
30127;SDS011;16942;53.196;6.592;2023-07-30T05:26:03;19.83;;;4.27;;
30127;SDS011;16942;53.196;6.592;2023-07-30T05:28:29;16.20;;;3.93;;
30127;SDS011;16942;53.196;6.592;2023-07-30T05:30:55;14.07;;;3.80;;
30127;SDS011;16942;53.196;6.592;2023-07-30T05:33:21;13.33;;;3.97;;
30127;SDS011;16942;53.196;6.592;2023-07-30T05:35:47;13.97;;;4.30;;
30127;SDS011;16942;53.196;6.592;2023-07-30T05:38:13;11.10;;;3.00;;
30127;SDS011;16942;53.196;6.592;2023-07-30T05:40:41;18.23;;;3.83;;
30127;SDS011;16942;53.196;6.592;2023-07-30T05:43:07;15.50;;;3.93;;
30127;SDS011;16942;53.196;6.592;2023-07-30T05:45:33;13.27;;;3.10;;
30127;SDS011;16942;53.196;6.592;2023-07-30T05:48:00;16.27;;;3.30;;
30127;SDS011;16942;53.196;6.592;2023-07-30T05:50:26;16.77;;;3.63;;
30127;SDS011;16942;53.196;6.592;2023-07-30T05:52:52;14.73;;;3.40;;
30127;SDS011;16942;53.196;6.592;2023-07-30T05:55:18;14.17;;;4.33;;
30127;SDS011;16942;53.196;6.592;2023-07-30T05:57:44;11.70;;;3.83;;
30127;SDS011;16942;53.196;6.592;2023-07-30T06:00:10;16.17;;;3.60;;
30127;SDS011;16942;53.196;6.592;2023-07-30T06:02:37;12.07;;;3.80;;
30127;SDS011;16942;53.196;6.592;2023-07-30T06:05:03;10.07;;;3.20;;
30127;SDS011;16942;53.196;6.592;2023-07-30T06:07:29;22.80;;;4.80;;
30127;SDS011;16942;53.196;6.592;2023-07-30T06:09:55;12.50;;;3.53;;
30127;SDS011;16942;53.196;6.592;2023-07-30T06:12:21;11.07;;;3.60;;
30127;SDS011;16942;53.196;6.592;2023-07-30T06:14:47;18.43;;;3.37;;
30127;SDS011;16942;53.196;6.592;2023-07-30T06:17:13;15.13;;;3.63;;
30127;SDS011;16942;53.196;6.592;2023-07-30T06:19:39;17.60;;;3.83;;
30127;SDS011;16942;53.196;6.592;2023-07-30T06:22:05;17.40;;;3.70;;
30127;SDS011;16942;53.196;6.592;2023-07-30T06:24:31;15.30;;;4.07;;
30127;SDS011;16942;53.196;6.592;2023-07-30T06:26:57;16.77;;;3.33;;
30127;SDS011;16942;53.196;6.592;2023-07-30T06:29:23;14.23;;;3.00;;
30127;SDS011;16942;53.196;6.592;2023-07-30T06:31:49;9.67;;;2.67;;
30127;SDS011;16942;53.196;6.592;2023-07-30T06:34:15;16.17;;;3.00;;
30127;SDS011;16942;53.196;6.592;2023-07-30T06:36:41;12.77;;;3.07;;
30127;SDS011;16942;53.196;6.592;2023-07-30T06:39:07;17.90;;;3.40;;
30127;SDS011;16942;53.196;6.592;2023-07-30T06:41:33;12.53;;;3.23;;
30127;SDS011;16942;53.196;6.592;2023-07-30T06:43:59;18.10;;;3.43;;
30127;SDS011;16942;53.196;6.592;2023-07-30T06:46:25;13.00;;;3.10;;
30127;SDS011;16942;53.196;6.592;2023-07-30T06:48:51;14.93;;;3.80;;
30127;SDS011;16942;53.196;6.592;2023-07-30T06:51:23;12.60;;;2.87;;
30127;SDS011;16942;53.196;6.592;2023-07-30T06:53:49;8.67;;;3.30;;
30127;SDS011;16942;53.196;6.592;2023-07-30T06:56:15;14.13;;;2.97;;
30127;SDS011;16942;53.196;6.592;2023-07-30T06:58:41;14.03;;;2.70;;
30127;SDS011;16942;53.196;6.592;2023-07-30T07:01:07;12.37;;;3.00;;
30127;SDS011;16942;53.196;6.592;2023-07-30T07:03:33;10.67;;;3.50;;
30127;SDS011;16942;53.196;6.592;2023-07-30T07:05:59;17.90;;;3.07;;
30127;SDS011;16942;53.196;6.592;2023-07-30T07:08:25;21.27;;;3.20;;
30127;SDS011;16942;53.196;6.592;2023-07-30T07:10:52;10.90;;;2.90;;
30127;SDS011;16942;53.196;6.592;2023-07-30T07:13:18;12.83;;;2.60;;
30127;SDS011;16942;53.196;6.592;2023-07-30T07:15:44;13.03;;;2.83;;
30127;SDS011;16942;53.196;6.592;2023-07-30T07:18:10;16.93;;;4.30;;
30127;SDS011;16942;53.196;6.592;2023-07-30T07:20:37;8.90;;;2.97;;
30127;SDS011;16942;53.196;6.592;2023-07-30T07:23:03;9.97;;;2.53;;
30127;SDS011;16942;53.196;6.592;2023-07-30T07:25:29;13.50;;;2.60;;
30127;SDS011;16942;53.196;6.592;2023-07-30T07:27:55;12.93;;;2.77;;
30127;SDS011;16942;53.196;6.592;2023-07-30T07:30:21;10.63;;;3.00;;
30127;SDS011;16942;53.196;6.592;2023-07-30T07:32:47;12.47;;;2.50;;
30127;SDS011;16942;53.196;6.592;2023-07-30T07:35:16;16.90;;;2.80;;
30127;SDS011;16942;53.196;6.592;2023-07-30T07:37:44;10.93;;;2.40;;
30127;SDS011;16942;53.196;6.592;2023-07-30T07:40:10;13.13;;;2.50;;
30127;SDS011;16942;53.196;6.592;2023-07-30T07:42:37;14.00;;;2.60;;
30127;SDS011;16942;53.196;6.592;2023-07-30T07:45:03;7.50;;;2.00;;
30127;SDS011;16942;53.196;6.592;2023-07-30T07:47:29;14.10;;;2.40;;
30127;SDS011;16942;53.196;6.592;2023-07-30T07:49:55;15.17;;;2.83;;
30127;SDS011;16942;53.196;6.592;2023-07-30T07:52:21;11.40;;;2.23;;
30127;SDS011;16942;53.196;6.592;2023-07-30T07:54:47;11.60;;;2.10;;
30127;SDS011;16942;53.196;6.592;2023-07-30T07:57:13;15.00;;;2.47;;
30127;SDS011;16942;53.196;6.592;2023-07-30T07:59:39;12.10;;;2.40;;
30127;SDS011;16942;53.196;6.592;2023-07-30T08:02:09;9.47;;;2.03;;
30127;SDS011;16942;53.196;6.592;2023-07-30T08:04:35;6.80;;;1.73;;
30127;SDS011;16942;53.196;6.592;2023-07-30T08:07:01;7.23;;;1.83;;
30127;SDS011;16942;53.196;6.592;2023-07-30T08:09:28;11.70;;;2.60;;
30127;SDS011;16942;53.196;6.592;2023-07-30T08:11:54;7.50;;;1.77;;
30127;SDS011;16942;53.196;6.592;2023-07-30T08:14:20;7.73;;;1.93;;
30127;SDS011;16942;53.196;6.592;2023-07-30T08:16:46;10.53;;;1.90;;
30127;SDS011;16942;53.196;6.592;2023-07-30T08:19:12;8.53;;;1.93;;
30127;SDS011;16942;53.196;6.592;2023-07-30T08:21:38;9.67;;;2.00;;
30127;SDS011;16942;53.196;6.592;2023-07-30T08:24:04;9.50;;;2.13;;
30127;SDS011;16942;53.196;6.592;2023-07-30T08:26:31;7.37;;;1.93;;
30127;SDS011;16942;53.196;6.592;2023-07-30T08:28:57;5.60;;;1.63;;
30127;SDS011;16942;53.196;6.592;2023-07-30T08:31:23;11.03;;;2.20;;
30127;SDS011;16942;53.196;6.592;2023-07-30T08:33:49;8.87;;;1.67;;
30127;SDS011;16942;53.196;6.592;2023-07-30T08:36:15;7.73;;;1.70;;
30127;SDS011;16942;53.196;6.592;2023-07-30T08:38:41;6.33;;;1.67;;
30127;SDS011;16942;53.196;6.592;2023-07-30T08:41:07;7.63;;;2.00;;
30127;SDS011;16942;53.196;6.592;2023-07-30T08:43:34;7.23;;;1.90;;
30127;SDS011;16942;53.196;6.592;2023-07-30T08:46:00;9.57;;;2.07;;
30127;SDS011;16942;53.196;6.592;2023-07-30T08:48:27;8.60;;;1.87;;
30127;SDS011;16942;53.196;6.592;2023-07-30T08:50:56;7.47;;;1.67;;
30127;SDS011;16942;53.196;6.592;2023-07-30T08:53:24;7.13;;;1.80;;
30127;SDS011;16942;53.196;6.592;2023-07-30T08:55:50;12.43;;;1.93;;
30127;SDS011;16942;53.196;6.592;2023-07-30T08:58:17;11.67;;;1.80;;
30127;SDS011;16942;53.196;6.592;2023-07-30T09:00:43;9.73;;;2.10;;
30127;SDS011;16942;53.196;6.592;2023-07-30T09:03:10;9.80;;;1.77;;
30127;SDS011;16942;53.196;6.592;2023-07-30T09:05:40;8.73;;;1.65;;
30127;SDS011;16942;53.196;6.592;2023-07-30T09:08:06;8.63;;;1.67;;
30127;SDS011;16942;53.196;6.592;2023-07-30T09:10:32;4.88;;;1.65;;
30127;SDS011;16942;53.196;6.592;2023-07-30T09:12:58;7.70;;;1.70;;
30127;SDS011;16942;53.196;6.592;2023-07-30T09:15:28;9.48;;;1.58;;
30127;SDS011;16942;53.196;6.592;2023-07-30T09:17:56;8.30;;;1.50;;
30127;SDS011;16942;53.196;6.592;2023-07-30T09:20:22;12.10;;;3.20;;
30127;SDS011;16942;53.196;6.592;2023-07-30T09:22:48;5.10;;;2.20;;
30127;SDS011;16942;53.196;6.592;2023-07-30T09:25:17;11.60;;;1.73;;
30127;SDS011;16942;53.196;6.592;2023-07-30T09:27:47;11.00;;;1.88;;
30127;SDS011;16942;53.196;6.592;2023-07-30T09:30:14;12.00;;;1.95;;
30127;SDS011;16942;53.196;6.592;2023-07-30T09:32:40;7.30;;;1.90;;
30127;SDS011;16942;53.196;6.592;2023-07-30T09:35:07;4.37;;;1.73;;
30127;SDS011;16942;53.196;6.592;2023-07-30T09:37:35;9.47;;;2.00;;
30127;SDS011;16942;53.196;6.592;2023-07-30T09:40:03;5.17;;;1.63;;
30127;SDS011;16942;53.196;6.592;2023-07-30T09:42:29;8.68;;;1.80;;
30127;SDS011;16942;53.196;6.592;2023-07-30T09:44:58;7.22;;;1.80;;
30127;SDS011;16942;53.196;6.592;2023-07-30T09:47:26;8.60;;;2.10;;
30127;SDS011;16942;53.196;6.592;2023-07-30T09:49:53;7.68;;;1.90;;
30127;SDS011;16942;53.196;6.592;2023-07-30T09:52:20;9.33;;;1.87;;
30127;SDS011;16942;53.196;6.592;2023-07-30T09:54:48;8.48;;;1.55;;
30127;SDS011;16942;53.196;6.592;2023-07-30T09:57:17;7.83;;;1.97;;
30127;SDS011;16942;53.196;6.592;2023-07-30T09:59:44;5.18;;;1.25;;
30127;SDS011;16942;53.196;6.592;2023-07-30T10:02:10;4.15;;;1.60;;
30127;SDS011;16942;53.196;6.592;2023-07-30T10:04:37;9.95;;;1.52;;
30127;SDS011;16942;53.196;6.592;2023-07-30T10:07:08;10.02;;;1.67;;
30127;SDS011;16942;53.196;6.592;2023-07-30T10:09:39;5.95;;;1.40;;
30127;SDS011;16942;53.196;6.592;2023-07-30T10:12:10;6.25;;;1.67;;
30127;SDS011;16942;53.196;6.592;2023-07-30T10:14:36;5.45;;;1.40;;
30127;SDS011;16942;53.196;6.592;2023-07-30T10:17:02;7.30;;;1.35;;
30127;SDS011;16942;53.196;6.592;2023-07-30T10:19:28;7.10;;;1.10;;
30127;SDS011;16942;53.196;6.592;2023-07-30T10:22:38;5.27;;;1.30;;
30127;SDS011;16942;53.196;6.592;2023-07-30T10:25:00;8.30;;;2.33;;
30127;SDS011;16942;53.196;6.592;2023-07-30T10:27:35;5.27;;;1.43;;
30127;SDS011;16942;53.196;6.592;2023-07-30T10:30:35;5.50;;;1.30;;
30127;SDS011;16942;53.196;6.592;2023-07-30T10:33:03;5.03;;;1.30;;
30127;SDS011;16942;53.196;6.592;2023-07-30T10:38:14;9.80;;;1.50;;
30127;SDS011;16942;53.196;6.592;2023-07-30T10:40:40;8.20;;;1.80;;
30127;SDS011;16942;53.196;6.592;2023-07-30T10:43:16;10.07;;;1.90;;
30127;SDS011;16942;53.196;6.592;2023-07-30T10:45:49;5.63;;;1.90;;
30127;SDS011;16942;53.196;6.592;2023-07-30T10:48:15;6.90;;;1.80;;
30127;SDS011;16942;53.196;6.592;2023-07-30T10:50:41;5.07;;;1.97;;
30127;SDS011;16942;53.196;6.592;2023-07-30T10:53:08;5.73;;;1.73;;
30127;SDS011;16942;53.196;6.592;2023-07-30T10:55:34;8.17;;;2.87;;
30127;SDS011;16942;53.196;6.592;2023-07-30T10:58:00;11.07;;;1.77;;
30127;SDS011;16942;53.196;6.592;2023-07-30T11:00:27;8.77;;;1.77;;
30127;SDS011;16942;53.196;6.592;2023-07-30T11:02:53;7.87;;;1.63;;
30127;SDS011;16942;53.196;6.592;2023-07-30T11:05:19;6.33;;;2.13;;
30127;SDS011;16942;53.196;6.592;2023-07-30T11:07:49;4.50;;;1.77;;
30127;SDS011;16942;53.196;6.592;2023-07-30T11:10:16;6.97;;;2.20;;
30127;SDS011;16942;53.196;6.592;2023-07-30T11:12:42;10.47;;;1.80;;
30127;SDS011;16942;53.196;6.592;2023-07-30T11:15:08;7.43;;;1.50;;
30127;SDS011;16942;53.196;6.592;2023-07-30T11:17:35;9.87;;;2.60;;
30127;SDS011;16942;53.196;6.592;2023-07-30T11:20:01;6.97;;;1.93;;
30127;SDS011;16942;53.196;6.592;2023-07-30T11:22:31;5.93;;;1.90;;
30127;SDS011;16942;53.196;6.592;2023-07-30T11:24:57;9.93;;;2.17;;
30127;SDS011;16942;53.196;6.592;2023-07-30T11:27:23;10.47;;;1.90;;
30127;SDS011;16942;53.196;6.592;2023-07-30T11:29:56;6.87;;;2.03;;
30127;SDS011;16942;53.196;6.592;2023-07-30T11:32:22;6.07;;;1.70;;
30127;SDS011;16942;53.196;6.592;2023-07-30T11:34:51;8.70;;;1.90;;
30127;SDS011;16942;53.196;6.592;2023-07-30T11:37:17;13.05;;;1.85;;
30127;SDS011;16942;53.196;6.592;2023-07-30T11:39:43;10.18;;;2.00;;
30127;SDS011;16942;53.196;6.592;2023-07-30T11:42:10;9.60;;;2.15;;
30127;SDS011;16942;53.196;6.592;2023-07-30T11:44:36;8.68;;;1.85;;
30127;SDS011;16942;53.196;6.592;2023-07-30T11:47:03;5.60;;;1.40;;
30127;SDS011;16942;53.196;6.592;2023-07-30T11:49:29;7.53;;;1.92;;
30127;SDS011;16942;53.196;6.592;2023-07-30T11:52:08;6.38;;;1.92;;
30127;SDS011;16942;53.196;6.592;2023-07-30T11:54:36;6.15;;;1.85;;
30127;SDS011;16942;53.196;6.592;2023-07-30T11:57:02;10.77;;;1.67;;
30127;SDS011;16942;53.196;6.592;2023-07-30T11:59:28;7.93;;;1.90;;
30127;SDS011;16942;53.196;6.592;2023-07-30T12:01:56;10.10;;;2.03;;
30127;SDS011;16942;53.196;6.592;2023-07-30T12:04:23;8.38;;;1.75;;
30127;SDS011;16942;53.196;6.592;2023-07-30T12:06:50;6.93;;;2.40;;
30127;SDS011;16942;53.196;6.592;2023-07-30T12:09:18;6.85;;;2.05;;
30127;SDS011;16942;53.196;6.592;2023-07-30T12:14:10;8.93;;;1.75;;
30127;SDS011;16942;53.196;6.592;2023-07-30T12:16:36;5.90;;;1.90;;
30127;SDS011;16942;53.196;6.592;2023-07-30T12:19:03;10.97;;;2.10;;
30127;SDS011;16942;53.196;6.592;2023-07-30T12:21:29;10.17;;;1.90;;
30127;SDS011;16942;53.196;6.592;2023-07-30T12:23:55;9.90;;;2.37;;
30127;SDS011;16942;53.196;6.592;2023-07-30T12:26:21;12.13;;;2.23;;
30127;SDS011;16942;53.196;6.592;2023-07-30T12:28:47;5.33;;;1.53;;
30127;SDS011;16942;53.196;6.592;2023-07-30T12:31:13;7.80;;;2.97;;
30127;SDS011;16942;53.196;6.592;2023-07-30T12:33:39;7.10;;;1.70;;
30127;SDS011;16942;53.196;6.592;2023-07-30T12:36:05;4.53;;;1.50;;
30127;SDS011;16942;53.196;6.592;2023-07-30T12:38:31;7.77;;;2.23;;
30127;SDS011;16942;53.196;6.592;2023-07-30T12:40:57;7.53;;;1.53;;
30127;SDS011;16942;53.196;6.592;2023-07-30T12:43:24;8.40;;;1.77;;
30127;SDS011;16942;53.196;6.592;2023-07-30T12:45:50;8.63;;;1.60;;
30127;SDS011;16942;53.196;6.592;2023-07-30T12:48:16;8.20;;;1.40;;
30127;SDS011;16942;53.196;6.592;2023-07-30T12:50:42;7.82;;;1.67;;
30127;SDS011;16942;53.196;6.592;2023-07-30T12:53:08;8.85;;;1.67;;
30127;SDS011;16942;53.196;6.592;2023-07-30T12:55:34;6.78;;;1.80;;
30127;SDS011;16942;53.196;6.592;2023-07-30T12:58:00;5.50;;;1.63;;
30127;SDS011;16942;53.196;6.592;2023-07-30T13:00:26;6.47;;;1.73;;
30127;SDS011;16942;53.196;6.592;2023-07-30T13:02:52;8.40;;;1.88;;
30127;SDS011;16942;53.196;6.592;2023-07-30T13:05:20;5.75;;;1.75;;
30127;SDS011;16942;53.196;6.592;2023-07-30T13:07:47;6.65;;;1.70;;
30127;SDS011;16942;53.196;6.592;2023-07-30T13:10:13;7.20;;;1.75;;
30127;SDS011;16942;53.196;6.592;2023-07-30T13:12:40;6.03;;;1.40;;
30127;SDS011;16942;53.196;6.592;2023-07-30T13:15:06;7.53;;;1.50;;
30127;SDS011;16942;53.196;6.592;2023-07-30T13:17:32;5.32;;;1.38;;
30127;SDS011;16942;53.196;6.592;2023-07-30T13:19:58;6.25;;;1.20;;
30127;SDS011;16942;53.196;6.592;2023-07-30T13:22:24;4.78;;;1.10;;
30127;SDS011;16942;53.196;6.592;2023-07-30T13:24:50;4.20;;;0.90;;
30127;SDS011;16942;53.196;6.592;2023-07-30T13:27:17;3.42;;;1.00;;
30127;SDS011;16942;53.196;6.592;2023-07-30T13:29:43;4.95;;;1.10;;
30127;SDS011;16942;53.196;6.592;2023-07-30T13:32:10;6.63;;;1.38;;
30127;SDS011;16942;53.196;6.592;2023-07-30T13:34:36;4.18;;;1.17;;
30127;SDS011;16942;53.196;6.592;2023-07-30T13:37:02;7.90;;;2.45;;
30127;SDS011;16942;53.196;6.592;2023-07-30T13:39:28;6.53;;;2.20;;
30127;SDS011;16942;53.196;6.592;2023-07-30T13:41:54;7.70;;;1.90;;
30127;SDS011;16942;53.196;6.592;2023-07-30T13:44:20;4.82;;;1.38;;
30127;SDS011;16942;53.196;6.592;2023-07-30T13:46:46;7.35;;;1.52;;
30127;SDS011;16942;53.196;6.592;2023-07-30T13:49:12;6.38;;;1.33;;
30127;SDS011;16942;53.196;6.592;2023-07-30T13:51:38;47.83;;;5.85;;
30127;SDS011;16942;53.196;6.592;2023-07-30T13:54:04;7.90;;;1.50;;
30127;SDS011;16942;53.196;6.592;2023-07-30T13:56:33;10.25;;;1.63;;
30127;SDS011;16942;53.196;6.592;2023-07-30T13:58:59;4.90;;;1.55;;
30127;SDS011;16942;53.196;6.592;2023-07-30T14:01:25;12.60;;;1.45;;
30127;SDS011;16942;53.196;6.592;2023-07-30T14:03:51;4.25;;;1.20;;
30127;SDS011;16942;53.196;6.592;2023-07-30T14:06:17;4.25;;;1.25;;
30127;SDS011;16942;53.196;6.592;2023-07-30T14:08:43;5.00;;;1.17;;
30127;SDS011;16942;53.196;6.592;2023-07-30T14:11:09;3.53;;;1.35;;
30127;SDS011;16942;53.196;6.592;2023-07-30T14:13:35;5.05;;;1.17;;
30127;SDS011;16942;53.196;6.592;2023-07-30T14:16:01;3.85;;;1.25;;
30127;SDS011;16942;53.196;6.592;2023-07-30T14:18:27;4.18;;;1.35;;
30127;SDS011;16942;53.196;6.592;2023-07-30T14:20:53;5.75;;;1.40;;
30127;SDS011;16942;53.196;6.592;2023-07-30T14:23:19;4.68;;;1.50;;
30127;SDS011;16942;53.196;6.592;2023-07-30T14:25:45;2.38;;;1.23;;
30127;SDS011;16942;53.196;6.592;2023-07-30T14:28:11;6.00;;;1.40;;
30127;SDS011;16942;53.196;6.592;2023-07-30T14:30:39;2.85;;;1.30;;
30127;SDS011;16942;53.196;6.592;2023-07-30T14:33:09;4.40;;;1.60;;
30127;SDS011;16942;53.196;6.592;2023-07-30T14:35:35;3.30;;;1.20;;
30127;SDS011;16942;53.196;6.592;2023-07-30T14:38:03;2.83;;;1.20;;
30127;SDS011;16942;53.196;6.592;2023-07-30T14:40:29;5.85;;;1.42;;
30127;SDS011;16942;53.196;6.592;2023-07-30T14:42:55;7.68;;;1.98;;